Terminal Aerodrome Forecast
Issued by NWS

Current Version | Previous Version | Text Only | Print | Product List | Glossary On
Versions: 1 2 3 4 5 6 7 8 9 10 11 12 13 14 15
442
FTUS43 KAPX 260052 AAA
TAFAPN
TAF AMD
KAPN 260052Z 2601/2624 11008KT P6SM OVC015
      TEMPO 2601/2603 SCT015 OVC050
     FM260300 09010KT P6SM -DZ OVC015
     FM260600 10009KT 6SM -RA BR OVC010
     FM260800 10009KT 5SM -RA BR OVC008
     FM261000 10009KT 3SM BR VCSH OVC008
     FM261200 11009KT 3SM -RA BR OVC008
     FM261300 11009KT 2SM -RA BR OVC003
     FM261900 11009KT 1/2SM -RA FG OVC003
     FM262100 11008KT 1/4SM -RA FG OVC003=

USA.gov is the U.S. government's official web portal to all federal, state and local government web resources and services.